sensor_id;sensor_type;location;lat;lon;timestamp;pressure;altitude;pressure_sealevel;temperature;humidity
75627;BME280;67372;49.404;11.034;2023-06-10T00:00:50;97887.53;;;15.45;67.30
75627;BME280;67372;49.404;11.034;2023-06-10T00:03:16;97882.66;;;15.42;66.07
75627;BME280;67372;49.404;11.034;2023-06-10T00:05:43;97886.69;;;15.39;66.49
75627;BME280;67372;49.404;11.034;2023-06-10T00:08:09;97884.47;;;15.36;66.20
75627;BME280;67372;49.404;11.034;2023-06-10T00:10:37;97886.34;;;15.35;65.99
75627;BME280;67372;49.404;11.034;2023-06-10T00:13:05;97890.91;;;15.35;65.67
75627;BME280;67372;49.404;11.034;2023-06-10T00:15:31;97885.78;;;15.33;66.06
75627;BME280;67372;49.404;11.034;2023-06-10T00:17:58;97884.44;;;15.31;65.64
75627;BME280;67372;49.404;11.034;2023-06-10T00:20:24;97889.25;;;15.29;66.17
75627;BME280;67372;49.404;11.034;2023-06-10T00:22:51;97887.06;;;15.26;66.09
75627;BME280;67372;49.404;11.034;2023-06-10T00:25:18;97889.75;;;15.26;65.70
75627;BME280;67372;49.404;11.034;2023-06-10T00:27:44;97885.16;;;15.21;66.34
75627;BME280;67372;49.404;11.034;2023-06-10T00:30:11;97883.78;;;15.19;66.17
75627;BME280;67372;49.404;11.034;2023-06-10T00:32:37;97887.53;;;15.18;67.12
75627;BME280;67372;49.404;11.034;2023-06-10T00:35:04;97887.47;;;15.13;66.95
75627;BME280;67372;49.404;11.034;2023-06-10T00:37:33;97891.47;;;15.10;66.74
75627;BME280;67372;49.404;11.034;2023-06-10T00:39:59;97890.63;;;15.04;67.71
75627;BME280;67372;49.404;11.034;2023-06-10T00:42:26;97887.63;;;15.01;66.85
75627;BME280;67372;49.404;11.034;2023-06-10T00:44:54;97890.81;;;14.98;67.26
75627;BME280;67372;49.404;11.034;2023-06-10T00:47:21;97892.94;;;14.96;66.94
75627;BME280;67372;49.404;11.034;2023-06-10T00:49:48;97888.09;;;14.93;67.50
75627;BME280;67372;49.404;11.034;2023-06-10T00:52:16;97882.38;;;14.89;68.05
75627;BME280;67372;49.404;11.034;2023-06-10T00:54:43;97895.25;;;14.87;68.07
75627;BME280;67372;49.404;11.034;2023-06-10T00:57:10;97885.53;;;14.81;69.66
75627;BME280;67372;49.404;11.034;2023-06-10T00:59:38;97890.84;;;14.76;68.28
75627;BME280;67372;49.404;11.034;2023-06-10T01:02:05;97891.59;;;14.71;68.83
75627;BME280;67372;49.404;11.034;2023-06-10T01:04:31;97886.72;;;14.68;69.31
75627;BME280;67372;49.404;11.034;2023-06-10T01:07:16;97890.69;;;14.66;68.89
75627;BME280;67372;49.404;11.034;2023-06-10T01:09:52;97880.72;;;14.61;69.69
75627;BME280;67372;49.404;11.034;2023-06-10T01:12:29;97886.84;;;14.57;70.62
75627;BME280;67372;49.404;11.034;2023-06-10T01:14:58;97880.59;;;14.51;70.06
75627;BME280;67372;49.404;11.034;2023-06-10T01:17:25;97882.97;;;14.48;69.52
75627;BME280;67372;49.404;11.034;2023-06-10T01:19:55;97875.44;;;14.45;69.94
75627;BME280;67372;49.404;11.034;2023-06-10T01:22:25;97884.72;;;14.42;70.71
75627;BME280;67372;49.404;11.034;2023-06-10T01:24:52;97888.22;;;14.42;70.95
75627;BME280;67372;49.404;11.034;2023-06-10T01:27:21;97886.03;;;14.39;71.18
75627;BME280;67372;49.404;11.034;2023-06-10T01:29:58;97884.66;;;14.37;70.99
75627;BME280;67372;49.404;11.034;2023-06-10T01:32:33;97889.47;;;14.35;71.57
75627;BME280;67372;49.404;11.034;2023-06-10T01:35:02;97878.19;;;14.33;71.17
75627;BME280;67372;49.404;11.034;2023-06-10T01:37:28;97885.41;;;14.32;71.73
75627;BME280;67372;49.404;11.034;2023-06-10T01:39:57;97888.34;;;14.31;71.66
75627;BME280;67372;49.404;11.034;2023-06-10T01:42:25;97882.44;;;14.29;71.38
75627;BME280;67372;49.404;11.034;2023-06-10T01:44:51;97883.97;;;14.25;73.17
75627;BME280;67372;49.404;11.034;2023-06-10T01:47:18;97889.84;;;14.22;71.22
75627;BME280;67372;49.404;11.034;2023-06-10T01:49:44;97894.16;;;14.23;70.94
75627;BME280;67372;49.404;11.034;2023-06-10T01:52:11;97899.53;;;14.23;71.17
75627;BME280;67372;49.404;11.034;2023-06-10T01:54:37;97896.50;;;14.19;71.94
75627;BME280;67372;49.404;11.034;2023-06-10T01:57:04;97894.81;;;14.13;73.86
75627;BME280;67372;49.404;11.034;2023-06-10T01:59:30;97897.75;;;14.11;72.87
75627;BME280;67372;49.404;11.034;2023-06-10T02:01:57;97898.78;;;14.10;74.34
75627;BME280;67372;49.404;11.034;2023-06-10T02:04:23;97888.06;;;14.10;74.37
75627;BME280;67372;49.404;11.034;2023-06-10T02:06:49;97887.00;;;14.11;74.66
75627;BME280;67372;49.404;11.034;2023-06-10T02:09:16;97882.25;;;14.19;73.71
75627;BME280;67372;49.404;11.034;2023-06-10T02:11:42;97880.75;;;14.23;73.49
75627;BME280;67372;49.404;11.034;2023-06-10T02:14:09;97878.44;;;14.31;73.78
75627;BME280;67372;49.404;11.034;2023-06-10T02:16:35;97885.72;;;14.36;74.01
75627;BME280;67372;49.404;11.034;2023-06-10T02:19:02;97888.16;;;14.37;74.23
75627;BME280;67372;49.404;11.034;2023-06-10T02:21:28;97876.38;;;14.38;74.45
75627;BME280;67372;49.404;11.034;2023-06-10T02:23:54;97875.56;;;14.38;74.35
75627;BME280;67372;49.404;11.034;2023-06-10T02:26:21;97883.84;;;14.36;73.66
75627;BME280;67372;49.404;11.034;2023-06-10T02:28:47;97882.47;;;14.34;73.39
75627;BME280;67372;49.404;11.034;2023-06-10T02:31:14;97893.22;;;14.34;73.46
75627;BME280;67372;49.404;11.034;2023-06-10T02:33:40;97889.16;;;14.31;73.46
75627;BME280;67372;49.404;11.034;2023-06-10T02:36:06;97888.34;;;14.31;73.72
75627;BME280;67372;49.404;11.034;2023-06-10T02:38:33;97897.47;;;14.30;73.30
75627;BME280;67372;49.404;11.034;2023-06-10T02:40:59;97895.22;;;14.22;75.82
75627;BME280;67372;49.404;11.034;2023-06-10T02:43:25;97885.69;;;14.14;74.44
75627;BME280;67372;49.404;11.034;2023-06-10T02:45:52;97891.31;;;14.12;74.89
75627;BME280;67372;49.404;11.034;2023-06-10T02:48:18;97888.88;;;14.11;74.27
75627;BME280;67372;49.404;11.034;2023-06-10T02:50:45;97889.69;;;14.11;73.69
75627;BME280;67372;49.404;11.034;2023-06-10T02:53:11;97896.84;;;14.06;78.25
75627;BME280;67372;49.404;11.034;2023-06-10T02:55:37;97893.84;;;14.02;75.79
75627;BME280;67372;49.404;11.034;2023-06-10T02:58:04;97896.47;;;13.97;76.89
75627;BME280;67372;49.404;11.034;2023-06-10T03:00:30;97898.34;;;13.97;76.48
75627;BME280;67372;49.404;11.034;2023-06-10T03:02:56;97895.56;;;13.92;77.43
75627;BME280;67372;49.404;11.034;2023-06-10T03:05:23;97900.69;;;13.93;76.52
75627;BME280;67372;49.404;11.034;2023-06-10T03:07:49;97899.88;;;13.93;76.53
75627;BME280;67372;49.404;11.034;2023-06-10T03:10:16;97899.88;;;13.93;76.40
75627;BME280;67372;49.404;11.034;2023-06-10T03:12:42;97897.75;;;13.95;75.74
75627;BME280;67372;49.404;11.034;2023-06-10T03:15:08;97898.34;;;13.97;75.84
75627;BME280;67372;49.404;11.034;2023-06-10T03:17:35;97895.88;;;13.95;77.72
75627;BME280;67372;49.404;11.034;2023-06-10T03:20:02;97899.63;;;13.94;76.43
75627;BME280;67372;49.404;11.034;2023-06-10T03:22:29;97898.34;;;13.97;75.82
75627;BME280;67372;49.404;11.034;2023-06-10T03:24:55;97898.91;;;13.99;75.65
75627;BME280;67372;49.404;11.034;2023-06-10T03:27:22;97902.16;;;14.01;75.93
75627;BME280;67372;49.404;11.034;2023-06-10T03:29:48;97902.97;;;14.01;76.24
75627;BME280;67372;49.404;11.034;2023-06-10T03:32:14;97911.56;;;14.03;76.23
75627;BME280;67372;49.404;11.034;2023-06-10T03:34:41;97910.75;;;14.03;76.93
75627;BME280;67372;49.404;11.034;2023-06-10T03:37:07;97908.09;;;14.03;76.39
75627;BME280;67372;49.404;11.034;2023-06-10T03:39:34;97906.22;;;14.03;76.43
75627;BME280;67372;49.404;11.034;2023-06-10T03:42:00;97909.69;;;14.04;76.82
75627;BME280;67372;49.404;11.034;2023-06-10T03:44:26;97910.25;;;14.06;76.80
75627;BME280;67372;49.404;11.034;2023-06-10T03:46:54;97907.59;;;14.06;76.61
75627;BME280;67372;49.404;11.034;2023-06-10T03:49:20;97914.63;;;14.12;76.46
75627;BME280;67372;49.404;11.034;2023-06-10T03:51:47;97911.78;;;14.19;76.25
75627;BME280;67372;49.404;11.034;2023-06-10T03:54:13;97918.06;;;14.24;75.84
75627;BME280;67372;49.404;11.034;2023-06-10T03:56:39;97910.13;;;14.34;75.75
75627;BME280;67372;49.404;11.034;2023-06-10T03:59:06;97907.75;;;14.55;76.23
75627;BME280;67372;49.404;11.034;2023-06-10T04:01:32;97910.81;;;14.85;76.20
75627;BME280;67372;49.404;11.034;2023-06-10T04:03:58;97907.75;;;15.25;75.37
75627;BME280;67372;49.404;11.034;2023-06-10T04:06:25;97917.34;;;15.70;74.48
75627;BME280;67372;49.404;11.034;2023-06-10T04:08:51;97911.22;;;16.12;73.23
75627;BME280;67372;49.404;11.034;2023-06-10T04:11:18;97915.47;;;16.50;71.28
75627;BME280;67372;49.404;11.034;2023-06-10T04:13:44;97907.53;;;16.75;70.39
75627;BME280;67372;49.404;11.034;2023-06-10T04:16:10;97903.56;;;16.93;68.83
75627;BME280;67372;49.404;11.034;2023-06-10T04:18:37;97910.09;;;17.07;68.28
75627;BME280;67372;49.404;11.034;2023-06-10T04:21:03;97899.31;;;17.07;67.95
75627;BME280;67372;49.404;11.034;2023-06-10T04:23:29;97903.09;;;17.22;68.12
75627;BME280;67372;49.404;11.034;2023-06-10T04:25:56;97908.00;;;17.50;67.50
75627;BME280;67372;49.404;11.034;2023-06-10T04:28:22;97903.75;;;17.74;66.69
75627;BME280;67372;49.404;11.034;2023-06-10T04:30:49;97911.03;;;18.04;66.01
75627;BME280;67372;49.404;11.034;2023-06-10T04:33:15;97905.34;;;18.11;65.38
75627;BME280;67372;49.404;11.034;2023-06-10T04:35:41;97905.03;;;18.38;64.31
75627;BME280;67372;49.404;11.034;2023-06-10T04:38:08;97902.81;;;18.55;63.48
75627;BME280;67372;49.404;11.034;2023-06-10T04:40:34;97902.03;;;18.45;62.48
75627;BME280;67372;49.404;11.034;2023-06-10T04:43:01;97904.28;;;17.87;63.72
75627;BME280;67372;49.404;11.034;2023-06-10T04:45:27;97906.38;;;17.44;65.18
75627;BME280;67372;49.404;11.034;2023-06-10T04:47:53;97902.34;;;17.36;65.24
75627;BME280;67372;49.404;11.034;2023-06-10T04:50:20;97909.88;;;17.34;64.91
75627;BME280;67372;49.404;11.034;2023-06-10T04:52:46;97908.78;;;17.25;65.16
75627;BME280;67372;49.404;11.034;2023-06-10T04:55:13;97909.56;;;17.15;65.39
75627;BME280;67372;49.404;11.034;2023-06-10T04:57:39;97913.06;;;17.06;66.25
75627;BME280;67372;49.404;11.034;2023-06-10T05:00:06;97915.97;;;16.94;66.40
75627;BME280;67372;49.404;11.034;2023-06-10T05:02:32;97909.94;;;16.72;66.97
75627;BME280;67372;49.404;11.034;2023-06-10T05:04:59;97911.31;;;16.74;66.88
75627;BME280;67372;49.404;11.034;2023-06-10T05:07:25;97913.47;;;16.77;67.24
75627;BME280;67372;49.404;11.034;2023-06-10T05:09:52;97905.06;;;16.64;68.25
75627;BME280;67372;49.404;11.034;2023-06-10T05:12:18;97914.53;;;16.71;67.54
75627;BME280;67372;49.404;11.034;2023-06-10T05:14:45;97916.41;;;16.71;68.14
75627;BME280;67372;49.404;11.034;2023-06-10T05:17:11;97918.22;;;16.60;68.43
75627;BME280;67372;49.404;11.034;2023-06-10T05:19:38;97915.31;;;16.67;68.22
75627;BME280;67372;49.404;11.034;2023-06-10T05:22:04;97916.13;;;16.67;68.47
75627;BME280;67372;49.404;11.034;2023-06-10T05:24:31;97916.44;;;16.76;67.80
75627;BME280;67372;49.404;11.034;2023-06-10T05:26:57;97920.25;;;16.85;67.79
75627;BME280;67372;49.404;11.034;2023-06-10T05:29:23;97918.38;;;16.85;68.31
75627;BME280;67372;49.404;11.034;2023-06-10T05:31:50;97919.19;;;16.91;68.27
75627;BME280;67372;49.404;11.034;2023-06-10T05:34:16;97920.28;;;17.00;68.18
75627;BME280;67372;49.404;11.034;2023-06-10T05:36:43;97912.25;;;17.15;67.21
75627;BME280;67372;49.404;11.034;2023-06-10T05:39:10;97915.50;;;17.23;67.19
75627;BME280;67372;49.404;11.034;2023-06-10T05:41:36;97914.75;;;17.37;66.75
75627;BME280;67372;49.404;11.034;2023-06-10T05:44:02;97924.19;;;17.40;67.08
75627;BME280;67372;49.404;11.034;2023-06-10T05:46:29;97914.25;;;17.56;66.38
75627;BME280;67372;49.404;11.034;2023-06-10T05:48:55;97918.53;;;17.67;66.29
75627;BME280;67372;49.404;11.034;2023-06-10T05:51:22;97926.41;;;17.73;66.18
75627;BME280;67372;49.404;11.034;2023-06-10T05:53:48;97919.41;;;17.83;66.10
75627;BME280;67372;49.404;11.034;2023-06-10T05:56:15;97924.53;;;17.89;65.89
75627;BME280;67372;49.404;11.034;2023-06-10T05:58:41;97926.16;;;18.00;65.87
75627;BME280;67372;49.404;11.034;2023-06-10T06:01:07;97932.63;;;18.04;65.39
75627;BME280;67372;49.404;11.034;2023-06-10T06:03:34;97929.38;;;18.07;65.14
75627;BME280;67372;49.404;11.034;2023-06-10T06:06:01;97926.69;;;18.23;64.62
75627;BME280;67372;49.404;11.034;2023-06-10T06:08:27;97928.78;;;18.36;64.24
75627;BME280;67372;49.404;11.034;2023-06-10T06:10:54;97933.63;;;18.44;64.11
75627;BME280;67372;49.404;11.034;2023-06-10T06:13:20;97930.66;;;18.51;63.97
75627;BME280;67372;49.404;11.034;2023-06-10T06:15:46;97919.03;;;18.65;63.82
75627;BME280;67372;49.404;11.034;2023-06-10T06:18:13;97927.63;;;18.83;63.19
75627;BME280;67372;49.404;11.034;2023-06-10T06:20:39;97924.34;;;18.96;62.30
75627;BME280;67372;49.404;11.034;2023-06-10T06:23:06;97927.47;;;19.18;61.99
75627;BME280;67372;49.404;11.034;2023-06-10T06:25:32;97924.94;;;19.32;61.51
75627;BME280;67372;49.404;11.034;2023-06-10T06:27:59;97922.91;;;19.53;60.38
75627;BME280;67372;49.404;11.034;2023-06-10T06:30:25;97928.03;;;19.59;60.22
75627;BME280;67372;49.404;11.034;2023-06-10T06:32:51;97926.66;;;19.62;60.75
75627;BME280;67372;49.404;11.034;2023-06-10T06:35:18;97929.06;;;19.69;61.13
75627;BME280;67372;49.404;11.034;2023-06-10T06:37:45;97928.69;;;19.80;60.69
75627;BME280;67372;49.404;11.034;2023-06-10T06:40:12;97927.03;;;19.89;59.90
75627;BME280;67372;49.404;11.034;2023-06-10T06:42:38;97927.44;;;20.02;59.26
75627;BME280;67372;49.404;11.034;2023-06-10T06:45:05;97926.88;;;20.05;59.18
75627;BME280;67372;49.404;11.034;2023-06-10T06:47:31;97925.13;;;20.19;59.10
75627;BME280;67372;49.404;11.034;2023-06-10T06:49:58;97929.88;;;20.32;58.86
75627;BME280;67372;49.404;11.034;2023-06-10T06:52:24;97931.94;;;20.45;58.40
75627;BME280;67372;49.404;11.034;2023-06-10T06:54:51;97934.13;;;20.43;58.23
75627;BME280;67372;49.404;11.034;2023-06-10T06:57:17;97939.66;;;20.28;58.08
75627;BME280;67372;49.404;11.034;2023-06-10T06:59:43;97931.47;;;20.38;58.17
75627;BME280;67372;49.404;11.034;2023-06-10T07:02:10;97926.47;;;20.50;57.03
75627;BME280;67372;49.404;11.034;2023-06-10T07:04:36;97925.03;;;20.58;57.17
75627;BME280;67372;49.404;11.034;2023-06-10T07:07:04;97928.50;;;20.64;56.46
75627;BME280;67372;49.404;11.034;2023-06-10T07:09:31;97926.25;;;20.71;56.92
75627;BME280;67372;49.404;11.034;2023-06-10T07:11:57;97920.69;;;20.81;56.46
75627;BME280;67372;49.404;11.034;2023-06-10T07:14:23;97927.63;;;20.92;56.10
75627;BME280;67372;49.404;11.034;2023-06-10T07:16:50;97920.66;;;21.05;55.45
75627;BME280;67372;49.404;11.034;2023-06-10T07:19:16;97925.69;;;21.17;56.28
75627;BME280;67372;49.404;11.034;2023-06-10T07:21:42;97928.03;;;21.23;53.56
75627;BME280;67372;49.404;11.034;2023-06-10T07:24:09;97923.84;;;21.36;54.07
75627;BME280;67372;49.404;11.034;2023-06-10T07:26:35;97927.91;;;21.52;54.06
75627;BME280;67372;49.404;11.034;2023-06-10T07:29:02;97927.19;;;21.65;53.52
75627;BME280;67372;49.404;11.034;2023-06-10T07:31:28;97929.75;;;21.75;53.42
75627;BME280;67372;49.404;11.034;2023-06-10T07:33:55;97927.19;;;21.84;53.35
75627;BME280;67372;49.404;11.034;2023-06-10T07:36:21;97930.63;;;21.90;52.89
75627;BME280;67372;49.404;11.034;2023-06-10T07:38:48;97922.81;;;22.02;53.00
75627;BME280;67372;49.404;11.034;2023-06-10T07:41:14;97929.72;;;22.13;52.34
75627;BME280;67372;49.404;11.034;2023-06-10T07:43:41;97924.78;;;22.15;52.04
75627;BME280;67372;49.404;11.034;2023-06-10T07:46:07;97931.31;;;22.14;51.18
75627;BME280;67372;49.404;11.034;2023-06-10T07:48:33;97930.94;;;22.21;51.49
75627;BME280;67372;49.404;11.034;2023-06-10T07:51:00;97925.00;;;22.19;51.34
75627;BME280;67372;49.404;11.034;2023-06-10T07:53:26;97928.06;;;22.31;52.13
75627;BME280;67372;49.404;11.034;2023-06-10T07:55:53;97931.19;;;22.38;51.34
75627;BME280;67372;49.404;11.034;2023-06-10T07:58:19;97928.47;;;22.38;50.77
75627;BME280;67372;49.404;11.034;2023-06-10T08:00:46;97920.81;;;22.40;50.70
75627;BME280;67372;49.404;11.034;2023-06-10T08:03:12;97929.09;;;22.49;50.74
75627;BME280;67372;49.404;11.034;2023-06-10T08:05:39;97923.25;;;22.55;50.49
75627;BME280;67372;49.404;11.034;2023-06-10T08:08:06;97916.09;;;22.59;49.50
75627;BME280;67372;49.404;11.034;2023-06-10T08:10:32;97919.94;;;22.58;49.37
75627;BME280;67372;49.404;11.034;2023-06-10T08:12:58;97918.72;;;22.64;48.81
75627;BME280;67372;49.404;11.034;2023-06-10T08:15:25;97920.22;;;22.71;47.75
75627;BME280;67372;49.404;11.034;2023-06-10T08:17:51;97917.63;;;22.79;48.37
75627;BME280;67372;49.404;11.034;2023-06-10T08:20:18;97921.69;;;22.82;47.82
75627;BME280;67372;49.404;11.034;2023-06-10T08:22:44;97918.75;;;22.92;48.62
75627;BME280;67372;49.404;11.034;2023-06-10T08:25:10;97921.56;;;23.01;47.81
75627;BME280;67372;49.404;11.034;2023-06-10T08:27:37;97916.00;;;23.06;47.30
75627;BME280;67372;49.404;11.034;2023-06-10T08:30:04;97909.97;;;23.09;46.78
75627;BME280;67372;49.404;11.034;2023-06-10T08:32:30;97913.19;;;23.11;46.61
75627;BME280;67372;49.404;11.034;2023-06-10T08:34:57;97903.28;;;23.15;46.94
75627;BME280;67372;49.404;11.034;2023-06-10T08:37:24;97907.84;;;23.19;47.31
75627;BME280;67372;49.404;11.034;2023-06-10T08:39:50;97907.09;;;23.27;46.48
75627;BME280;67372;49.404;11.034;2023-06-10T08:44:54;97909.56;;;23.51;45.87
75627;BME280;67372;49.404;11.034;2023-06-10T08:47:22;97904.84;;;23.57;46.53
75627;BME280;67372;49.404;11.034;2023-06-10T08:49:50;97901.34;;;23.65;46.72
75627;BME280;67372;49.404;11.034;2023-06-10T08:52:18;97905.16;;;23.78;46.87
75627;BME280;67372;49.404;11.034;2023-06-10T08:54:59;97908.72;;;23.87;44.85
75627;BME280;67372;49.404;11.034;2023-06-10T08:57:30;97900.94;;;23.94;45.83
75627;BME280;67372;49.404;11.034;2023-06-10T08:59:57;97902.13;;;24.02;44.42
75627;BME280;67372;49.404;11.034;2023-06-10T09:02:24;97899.25;;;24.07;44.75
75627;BME280;67372;49.404;11.034;2023-06-10T09:04:51;97902.13;;;24.02;43.34
75627;BME280;67372;49.404;11.034;2023-06-10T09:07:18;97913.50;;;24.04;43.71
75627;BME280;67372;49.404;11.034;2023-06-10T09:09:45;97903.59;;;24.08;43.59
75627;BME280;67372;49.404;11.034;2023-06-10T09:12:13;97907.38;;;23.98;43.69
75627;BME280;67372;49.404;11.034;2023-06-10T09:14:43;97897.47;;;24.02;43.39
75627;BME280;67372;49.404;11.034;2023-06-10T09:17:10;97897.19;;;24.12;44.24
75627;BME280;67372;49.404;11.034;2023-06-10T09:19:37;97903.38;;;24.27;44.05
75627;BME280;67372;49.404;11.034;2023-06-10T09:22:04;97905.69;;;24.33;43.70
75627;BME280;67372;49.404;11.034;2023-06-10T09:24:31;97906.22;;;24.44;44.20
75627;BME280;67372;49.404;11.034;2023-06-10T09:27:06;97901.44;;;24.49;44.28
75627;BME280;67372;49.404;11.034;2023-06-10T09:32:12;97907.22;;;24.88;42.52
75627;BME280;67372;49.404;11.034;2023-06-10T09:34:39;97897.81;;;25.11;42.75
75627;BME280;67372;49.404;11.034;2023-06-10T09:37:06;97898.00;;;25.32;41.87
75627;BME280;67372;49.404;11.034;2023-06-10T09:39:32;97901.88;;;25.48;41.88
75627;BME280;67372;49.404;11.034;2023-06-10T09:41:59;97904.75;;;25.43;41.05
75627;BME280;67372;49.404;11.034;2023-06-10T09:44:25;97901.53;;;25.41;41.35
75627;BME280;67372;49.404;11.034;2023-06-10T09:46:52;97904.44;;;25.53;41.90
75627;BME280;67372;49.404;11.034;2023-06-10T09:49:18;97902.84;;;25.69;40.92
75627;BME280;67372;49.404;11.034;2023-06-10T09:51:52;97905.59;;;25.87;41.39
75627;BME280;67372;49.404;11.034;2023-06-10T09:54:22;97905.25;;;25.97;39.46
75627;BME280;67372;49.404;11.034;2023-06-10T09:56:51;97904.75;;;25.95;39.03
75627;BME280;67372;49.404;11.034;2023-06-10T09:59:30;97898.31;;;25.99;39.61
75627;BME280;67372;49.404;11.034;2023-06-10T10:01:57;97895.13;;;26.06;40.84
75627;BME280;67372;49.404;11.034;2023-06-10T10:04:24;97894.31;;;26.06;39.07
75627;BME280;67372;49.404;11.034;2023-06-10T10:06:51;97900.59;;;26.06;39.98
75627;BME280;67372;49.404;11.034;2023-06-10T10:09:17;97885.41;;;26.17;40.21
75627;BME280;67372;49.404;11.034;2023-06-10T10:11:44;97894.09;;;26.28;39.03
75627;BME280;67372;49.404;11.034;2023-06-10T10:14:11;97895.31;;;26.48;39.80
75627;BME280;67372;49.404;11.034;2023-06-10T10:16:41;97886.16;;;26.44;38.33
75627;BME280;67372;49.404;11.034;2023-06-10T10:19:18;97890.56;;;26.36;38.00
75627;BME280;67372;49.404;11.034;2023-06-10T10:21:52;97891.50;;;26.31;38.71
75627;BME280;67372;49.404;11.034;2023-06-10T10:24:26;97892.78;;;26.25;39.03
75627;BME280;67372;49.404;11.034;2023-06-10T10:26:59;97891.41;;;26.11;40.28
75627;BME280;67372;49.404;11.034;2023-06-10T10:29:37;97889.19;;;25.87;39.94
75627;BME280;67372;49.404;11.034;2023-06-10T10:32:06;97882.13;;;25.86;40.46
75627;BME280;67372;49.404;11.034;2023-06-10T10:34:49;97889.31;;;25.99;41.01
75627;BME280;67372;49.404;11.034;2023-06-10T10:37:17;97889.00;;;26.09;40.00
75627;BME280;67372;49.404;11.034;2023-06-10T10:39:44;97887.03;;;26.27;39.50
75627;BME280;67372;49.404;11.034;2023-06-10T10:42:12;97877.81;;;26.40;39.14
75627;BME280;67372;49.404;11.034;2023-06-10T10:44:39;97886.78;;;26.49;38.86
75627;BME280;67372;49.404;11.034;2023-06-10T10:47:09;97884.69;;;26.55;38.27
75627;BME280;67372;49.404;11.034;2023-06-10T10:49:37;97881.84;;;26.72;37.96
75627;BME280;67372;49.404;11.034;2023-06-10T10:52:04;97885.59;;;26.97;38.97
75627;BME280;67372;49.404;11.034;2023-06-10T10:54:31;97884.91;;;27.09;37.51
75627;BME280;67372;49.404;11.034;2023-06-10T10:57:18;97886.97;;;27.12;37.94
75627;BME280;67372;49.404;11.034;2023-06-10T11:02:16;97896.09;;;27.25;38.20
75627;BME280;67372;49.404;11.034;2023-06-10T11:04:46;97890.00;;;27.40;38.04
75627;BME280;67372;49.404;11.034;2023-06-10T11:07:14;97890.34;;;27.38;38.59
75627;BME280;67372;49.404;11.034;2023-06-10T11:10:07;97888.69;;;27.46;38.48
75627;BME280;67372;49.404;11.034;2023-06-10T11:15:07;97883.69;;;27.69;37.35
75627;BME280;67372;49.404;11.034;2023-06-10T11:17:34;97885.31;;;27.70;37.66
75627;BME280;67372;49.404;11.034;2023-06-10T11:20:00;97882.72;;;27.86;38.32
75627;BME280;67372;49.404;11.034;2023-06-10T11:22:27;97890.81;;;27.82;36.83
75627;BME280;67372;49.404;11.034;2023-06-10T11:24:53;97873.25;;;27.62;36.83
75627;BME280;67372;49.404;11.034;2023-06-10T11:27:23;97882.59;;;27.61;36.95
75627;BME280;67372;49.404;11.034;2023-06-10T11:32:33;97882.34;;;27.75;37.38
75627;BME280;67372;49.404;11.034;2023-06-10T11:35:03;97875.81;;;28.00;37.36
75627;BME280;67372;49.404;11.034;2023-06-10T11:37:30;97873.00;;;28.21;37.05
75627;BME280;67372;49.404;11.034;2023-06-10T11:39:57;97868.97;;;28.39;36.30
75627;BME280;67372;49.404;11.034;2023-06-10T11:42:24;97877.75;;;28.45;36.14
75627;BME280;67372;49.404;11.034;2023-06-10T11:44:53;97871.81;;;28.10;35.37
75627;BME280;67372;49.404;11.034;2023-06-10T11:47:20;97868.31;;;27.89;36.42
75627;BME280;67372;49.404;11.034;2023-06-10T11:49:56;97875.38;;;27.77;36.89
75627;BME280;67372;49.404;11.034;2023-06-10T11:52:30;97865.63;;;27.47;37.31
75627;BME280;67372;49.404;11.034;2023-06-10T11:54:56;97867.06;;;27.44;37.41
75627;BME280;67372;49.404;11.034;2023-06-10T11:57:23;97864.63;;;27.51;37.79
75627;BME280;67372;49.404;11.034;2023-06-10T11:59:49;97878.59;;;27.38;37.04
75627;BME280;67372;49.404;11.034;2023-06-10T12:02:16;97877.72;;;27.25;36.86
75627;BME280;67372;49.404;11.034;2023-06-10T12:04:43;97879.38;;;27.38;36.89
75627;BME280;67372;49.404;11.034;2023-06-10T12:07:17;97876.50;;;27.56;36.03
75627;BME280;67372;49.404;11.034;2023-06-10T12:09:43;97864.19;;;27.82;36.57
75627;BME280;67372;49.404;11.034;2023-06-10T12:12:10;97864.72;;;28.09;36.39
75627;BME280;67372;49.404;11.034;2023-06-10T12:14:56;97864.34;;;28.31;36.07
75627;BME280;67372;49.404;11.034;2023-06-10T12:17:35;97864.59;;;28.51;35.93
75627;BME280;67372;49.404;11.034;2023-06-10T12:20:04;97865.22;;;28.23;35.39
75627;BME280;67372;49.404;11.034;2023-06-10T12:22:42;97865.63;;;28.01;35.65
75627;BME280;67372;49.404;11.034;2023-06-10T12:25:09;97858.31;;;28.05;36.40
75627;BME280;67372;49.404;11.034;2023-06-10T12:27:38;97859.81;;;28.14;36.47
75627;BME280;67372;49.404;11.034;2023-06-10T12:30:05;97852.00;;;28.37;36.11
75627;BME280;67372;49.404;11.034;2023-06-10T12:32:39;97854.56;;;28.42;35.77
75627;BME280;67372;49.404;11.034;2023-06-10T12:35:07;97853.75;;;28.42;35.23
75627;BME280;67372;49.404;11.034;2023-06-10T12:37:34;97848.22;;;28.30;35.28
75627;BME280;67372;49.404;11.034;2023-06-10T12:40:04;97849.34;;;28.17;35.72
75627;BME280;67372;49.404;11.034;2023-06-10T12:42:31;97841.41;;;28.15;36.31
75627;BME280;67372;49.404;11.034;2023-06-10T12:44:58;97843.84;;;28.17;36.85
75627;BME280;67372;49.404;11.034;2023-06-10T12:47:34;97845.72;;;28.25;36.95
75627;BME280;67372;49.404;11.034;2023-06-10T12:50:02;97833.59;;;28.38;36.45
75627;BME280;67372;49.404;11.034;2023-06-10T12:52:29;97847.00;;;28.52;35.99
75627;BME280;67372;49.404;11.034;2023-06-10T12:54:55;97833.50;;;28.59;34.94
75627;BME280;67372;49.404;11.034;2023-06-10T12:57:22;97839.09;;;28.62;35.26
75627;BME280;67372;49.404;11.034;2023-06-10T12:59:48;97840.25;;;28.61;34.86
75627;BME280;67372;49.404;11.034;2023-06-10T13:02:15;97843.56;;;28.67;35.19
75627;BME280;67372;49.404;11.034;2023-06-10T13:04:45;97840.03;;;28.66;34.33